sensor_id;sensor_type;location;lat;lon;timestamp;temperature;humidity
56234;DHT22;42141;53.240;6.580;2022-08-18T00:01:12;18.60;99.90
56234;DHT22;42141;53.240;6.580;2022-08-18T00:03:38;18.60;99.90
56234;DHT22;42141;53.240;6.580;2022-08-18T00:06:06;18.60;99.90
56234;DHT22;42141;53.240;6.580;2022-08-18T00:08:32;18.50;99.90
56234;DHT22;42141;53.240;6.580;2022-08-18T00:10:58;18.50;99.90
56234;DHT22;42141;53.240;6.580;2022-08-18T00:13:25;18.50;99.90
56234;DHT22;42141;53.240;6.580;2022-08-18T00:15:51;18.50;99.90
56234;DHT22;42141;53.240;6.580;2022-08-18T00:18:16;18.40;99.90
56234;DHT22;42141;53.240;6.580;2022-08-18T00:20:42;18.40;99.90
56234;DHT22;42141;53.240;6.580;2022-08-18T00:23:08;18.40;99.90
56234;DHT22;42141;53.240;6.580;2022-08-18T00:25:34;18.40;99.90
56234;DHT22;42141;53.240;6.580;2022-08-18T00:28:00;18.40;99.90
56234;DHT22;42141;53.240;6.580;2022-08-18T00:30:26;18.40;99.90
56234;DHT22;42141;53.240;6.580;2022-08-18T00:32:57;18.60;99.90
56234;DHT22;42141;53.240;6.580;2022-08-18T00:35:34;18.40;99.90
56234;DHT22;42141;53.240;6.580;2022-08-18T00:38:04;18.40;99.90
56234;DHT22;42141;53.240;6.580;2022-08-18T00:40:42;18.40;99.90
56234;DHT22;42141;53.240;6.580;2022-08-18T00:43:14;18.40;99.90
56234;DHT22;42141;53.240;6.580;2022-08-18T00:45:43;18.30;99.90
56234;DHT22;42141;53.240;6.580;2022-08-18T00:48:10;18.30;99.90
56234;DHT22;42141;53.240;6.580;2022-08-18T00:50:44;18.30;99.90
56234;DHT22;42141;53.240;6.580;2022-08-18T00:53:22;18.30;99.90
56234;DHT22;42141;53.240;6.580;2022-08-18T00:55:51;18.30;99.90
56234;DHT22;42141;53.240;6.580;2022-08-18T00:58:41;19.00;99.90
56234;DHT22;42141;53.240;6.580;2022-08-18T01:01:07;18.30;99.90
56234;DHT22;42141;53.240;6.580;2022-08-18T01:03:34;18.30;99.90
56234;DHT22;42141;53.240;6.580;2022-08-18T01:06:15;18.30;99.90
56234;DHT22;42141;53.240;6.580;2022-08-18T01:08:42;18.30;99.90
56234;DHT22;42141;53.240;6.580;2022-08-18T01:11:08;18.30;99.90
56234;DHT22;42141;53.240;6.580;2022-08-18T01:13:35;18.30;99.90
56234;DHT22;42141;53.240;6.580;2022-08-18T01:16:03;18.30;99.90
56234;DHT22;42141;53.240;6.580;2022-08-18T01:18:49;18.30;99.90
56234;DHT22;42141;53.240;6.580;2022-08-18T01:21:40;18.30;99.90
56234;DHT22;42141;53.240;6.580;2022-08-18T01:24:17;18.40;99.90
56234;DHT22;42141;53.240;6.580;2022-08-18T01:26:44;18.40;99.90
56234;DHT22;42141;53.240;6.580;2022-08-18T01:29:16;18.40;99.90
56234;DHT22;42141;53.240;6.580;2022-08-18T01:31:52;18.40;99.90
56234;DHT22;42141;53.240;6.580;2022-08-18T01:34:21;18.40;99.90
56234;DHT22;42141;53.240;6.580;2022-08-18T01:36:49;18.30;99.90
56234;DHT22;42141;53.240;6.580;2022-08-18T01:39:18;18.40;99.90
56234;DHT22;42141;53.240;6.580;2022-08-18T01:41:44;18.40;99.90
56234;DHT22;42141;53.240;6.580;2022-08-18T01:44:10;18.40;99.90
56234;DHT22;42141;53.240;6.580;2022-08-18T01:46:38;18.40;99.90
56234;DHT22;42141;53.240;6.580;2022-08-18T01:49:05;18.40;99.90
56234;DHT22;42141;53.240;6.580;2022-08-18T01:51:32;18.40;99.90
56234;DHT22;42141;53.240;6.580;2022-08-18T01:54:00;18.40;99.90
56234;DHT22;42141;53.240;6.580;2022-08-18T01:56:26;18.40;99.90
56234;DHT22;42141;53.240;6.580;2022-08-18T01:58:53;18.40;99.90
56234;DHT22;42141;53.240;6.580;2022-08-18T02:01:20;18.20;99.90
56234;DHT22;42141;53.240;6.580;2022-08-18T02:03:52;18.50;99.90
56234;DHT22;42141;53.240;6.580;2022-08-18T02:06:19;18.40;99.90
56234;DHT22;42141;53.240;6.580;2022-08-18T02:08:46;18.50;99.90
56234;DHT22;42141;53.240;6.580;2022-08-18T02:11:12;18.50;99.90
56234;DHT22;42141;53.240;6.580;2022-08-18T02:13:38;18.50;99.90
56234;DHT22;42141;53.240;6.580;2022-08-18T02:16:05;18.50;99.90
56234;DHT22;42141;53.240;6.580;2022-08-18T02:18:34;18.60;99.90
56234;DHT22;42141;53.240;6.580;2022-08-18T02:21:11;18.60;99.90
56234;DHT22;42141;53.240;6.580;2022-08-18T02:23:39;18.60;99.90
56234;DHT22;42141;53.240;6.580;2022-08-18T02:26:09;18.60;99.90
56234;DHT22;42141;53.240;6.580;2022-08-18T02:28:35;18.60;99.90
56234;DHT22;42141;53.240;6.580;2022-08-18T02:31:09;18.60;99.90
56234;DHT22;42141;53.240;6.580;2022-08-18T02:33:36;18.60;99.90
56234;DHT22;42141;53.240;6.580;2022-08-18T02:36:03;18.60;99.90
56234;DHT22;42141;53.240;6.580;2022-08-18T02:38:29;18.50;99.90
56234;DHT22;42141;53.240;6.580;2022-08-18T02:41:00;18.60;99.90
56234;DHT22;42141;53.240;6.580;2022-08-18T02:43:26;18.60;99.90
56234;DHT22;42141;53.240;6.580;2022-08-18T02:45:53;18.60;99.90
56234;DHT22;42141;53.240;6.580;2022-08-18T02:48:19;18.50;99.90
56234;DHT22;42141;53.240;6.580;2022-08-18T02:51:10;18.60;99.90
56234;DHT22;42141;53.240;6.580;2022-08-18T02:53:41;18.60;99.90
56234;DHT22;42141;53.240;6.580;2022-08-18T02:56:13;18.60;99.90
56234;DHT22;42141;53.240;6.580;2022-08-18T02:58:42;18.60;99.90
56234;DHT22;42141;53.240;6.580;2022-08-18T03:01:08;18.60;99.90
56234;DHT22;42141;53.240;6.580;2022-08-18T03:03:34;18.60;99.90
56234;DHT22;42141;53.240;6.580;2022-08-18T03:06:00;18.70;99.90
56234;DHT22;42141;53.240;6.580;2022-08-18T03:08:26;18.70;99.90
56234;DHT22;42141;53.240;6.580;2022-08-18T03:10:52;18.70;99.90
56234;DHT22;42141;53.240;6.580;2022-08-18T03:13:18;18.70;99.90
56234;DHT22;42141;53.240;6.580;2022-08-18T03:15:44;18.70;99.90
56234;DHT22;42141;53.240;6.580;2022-08-18T03:18:09;18.70;99.90
56234;DHT22;42141;53.240;6.580;2022-08-18T03:20:36;18.60;99.90
56234;DHT22;42141;53.240;6.580;2022-08-18T03:23:03;18.70;99.90
56234;DHT22;42141;53.240;6.580;2022-08-18T03:25:29;18.70;99.90
56234;DHT22;42141;53.240;6.580;2022-08-18T03:27:55;18.70;99.90
56234;DHT22;42141;53.240;6.580;2022-08-18T03:30:21;18.70;99.90
56234;DHT22;42141;53.240;6.580;2022-08-18T03:32:48;18.70;99.90
56234;DHT22;42141;53.240;6.580;2022-08-18T03:35:14;18.70;99.90
56234;DHT22;42141;53.240;6.580;2022-08-18T03:37:41;18.70;99.90
56234;DHT22;42141;53.240;6.580;2022-08-18T03:40:07;18.70;99.90
56234;DHT22;42141;53.240;6.580;2022-08-18T03:42:35;18.70;99.90
56234;DHT22;42141;53.240;6.580;2022-08-18T03:45:02;18.60;99.90
56234;DHT22;42141;53.240;6.580;2022-08-18T03:47:27;18.70;99.90
56234;DHT22;42141;53.240;6.580;2022-08-18T03:49:53;18.60;99.90
56234;DHT22;42141;53.240;6.580;2022-08-18T03:52:19;18.60;99.90
56234;DHT22;42141;53.240;6.580;2022-08-18T03:54:45;18.70;99.90
56234;DHT22;42141;53.240;6.580;2022-08-18T03:57:11;18.60;99.90
56234;DHT22;42141;53.240;6.580;2022-08-18T03:59:38;18.70;99.90
56234;DHT22;42141;53.240;6.580;2022-08-18T04:02:09;18.70;99.90
56234;DHT22;42141;53.240;6.580;2022-08-18T04:04:35;18.70;99.90
56234;DHT22;42141;53.240;6.580;2022-08-18T04:07:06;18.70;99.90
56234;DHT22;42141;53.240;6.580;2022-08-18T04:09:33;18.70;99.90
56234;DHT22;42141;53.240;6.580;2022-08-18T04:12:07;18.70;99.90
56234;DHT22;42141;53.240;6.580;2022-08-18T04:14:37;18.70;99.90
56234;DHT22;42141;53.240;6.580;2022-08-18T04:17:04;18.70;99.90
56234;DHT22;42141;53.240;6.580;2022-08-18T04:19:29;18.70;99.90
56234;DHT22;42141;53.240;6.580;2022-08-18T04:21:57;18.70;99.90
56234;DHT22;42141;53.240;6.580;2022-08-18T04:24:25;18.70;99.90
56234;DHT22;42141;53.240;6.580;2022-08-18T04:26:51;18.70;99.90
56234;DHT22;42141;53.240;6.580;2022-08-18T04:29:19;18.70;99.90
56234;DHT22;42141;53.240;6.580;2022-08-18T04:31:49;18.70;99.90
56234;DHT22;42141;53.240;6.580;2022-08-18T04:34:17;18.70;99.90
56234;DHT22;42141;53.240;6.580;2022-08-18T04:36:43;18.80;99.90
56234;DHT22;42141;53.240;6.580;2022-08-18T04:39:11;18.70;99.90
56234;DHT22;42141;53.240;6.580;2022-08-18T04:41:38;18.80;99.90
56234;DHT22;42141;53.240;6.580;2022-08-18T04:44:07;18.70;99.90
56234;DHT22;42141;53.240;6.580;2022-08-18T04:46:42;18.80;99.90
56234;DHT22;42141;53.240;6.580;2022-08-18T04:49:09;18.80;99.90
56234;DHT22;42141;53.240;6.580;2022-08-18T04:51:35;18.80;99.90
56234;DHT22;42141;53.240;6.580;2022-08-18T04:54:05;18.70;99.90
56234;DHT22;42141;53.240;6.580;2022-08-18T04:56:34;18.80;99.90
56234;DHT22;42141;53.240;6.580;2022-08-18T04:59:10;18.70;99.90
56234;DHT22;42141;53.240;6.580;2022-08-18T05:01:39;18.70;99.90
56234;DHT22;42141;53.240;6.580;2022-08-18T05:04:05;18.70;99.90
56234;DHT22;42141;53.240;6.580;2022-08-18T05:06:32;18.80;99.90
56234;DHT22;42141;53.240;6.580;2022-08-18T05:09:03;18.70;99.90
56234;DHT22;42141;53.240;6.580;2022-08-18T05:11:30;18.80;99.90
56234;DHT22;42141;53.240;6.580;2022-08-18T05:14:01;18.80;99.90
56234;DHT22;42141;53.240;6.580;2022-08-18T05:16:27;18.80;99.90
56234;DHT22;42141;53.240;6.580;2022-08-18T05:18:53;18.80;99.90
56234;DHT22;42141;53.240;6.580;2022-08-18T05:21:20;18.70;99.90
56234;DHT22;42141;53.240;6.580;2022-08-18T05:23:48;18.80;99.90
56234;DHT22;42141;53.240;6.580;2022-08-18T05:26:15;18.70;99.90
56234;DHT22;42141;53.240;6.580;2022-08-18T05:28:43;18.80;99.90
56234;DHT22;42141;53.240;6.580;2022-08-18T05:31:11;18.80;99.90
56234;DHT22;42141;53.240;6.580;2022-08-18T05:33:39;18.40;99.90
56234;DHT22;42141;53.240;6.580;2022-08-18T05:38:58;18.80;99.90
56234;DHT22;42141;53.240;6.580;2022-08-18T05:41:32;18.80;99.90
56234;DHT22;42141;53.240;6.580;2022-08-18T05:43:59;18.80;99.90
56234;DHT22;42141;53.240;6.580;2022-08-18T05:46:38;18.80;99.90
56234;DHT22;42141;53.240;6.580;2022-08-18T05:49:05;18.90;99.90
56234;DHT22;42141;53.240;6.580;2022-08-18T05:51:47;18.90;99.90
56234;DHT22;42141;53.240;6.580;2022-08-18T05:54:14;19.00;99.90
56234;DHT22;42141;53.240;6.580;2022-08-18T05:57:04;19.00;99.90
56234;DHT22;42141;53.240;6.580;2022-08-18T05:59:37;19.10;99.90
56234;DHT22;42141;53.240;6.580;2022-08-18T06:05:04;19.20;99.90
56234;DHT22;42141;53.240;6.580;2022-08-18T06:07:51;19.30;99.90
56234;DHT22;42141;53.240;6.580;2022-08-18T06:10:17;19.30;99.90
56234;DHT22;42141;53.240;6.580;2022-08-18T06:12:49;19.40;99.90
56234;DHT22;42141;53.240;6.580;2022-08-18T06:37:47;19.20;99.90
56234;DHT22;42141;53.240;6.580;2022-08-18T06:40:33;19.20;99.90
56234;DHT22;42141;53.240;6.580;2022-08-18T06:42:59;19.30;99.90
56234;DHT22;42141;53.240;6.580;2022-08-18T06:45:34;19.30;99.90
56234;DHT22;42141;53.240;6.580;2022-08-18T06:48:17;19.30;99.90
56234;DHT22;42141;53.240;6.580;2022-08-18T06:50:56;19.30;99.90
56234;DHT22;42141;53.240;6.580;2022-08-18T06:56:34;19.30;99.90
56234;DHT22;42141;53.240;6.580;2022-08-18T07:01:52;19.30;99.90
56234;DHT22;42141;53.240;6.580;2022-08-18T07:05:02;19.30;99.90
56234;DHT22;42141;53.240;6.580;2022-08-18T07:07:34;19.30;99.90
56234;DHT22;42141;53.240;6.580;2022-08-18T07:10:04;19.30;99.90
56234;DHT22;42141;53.240;6.580;2022-08-18T07:12:30;19.30;99.90
56234;DHT22;42141;53.240;6.580;2022-08-18T07:15:01;19.20;99.90
56234;DHT22;42141;53.240;6.580;2022-08-18T07:17:29;19.20;99.90
56234;DHT22;42141;53.240;6.580;2022-08-18T07:20:00;19.20;99.90
56234;DHT22;42141;53.240;6.580;2022-08-18T07:22:27;19.20;99.90
56234;DHT22;42141;53.240;6.580;2022-08-18T07:24:55;19.20;99.90
56234;DHT22;42141;53.240;6.580;2022-08-18T07:27:45;19.20;99.90
56234;DHT22;42141;53.240;6.580;2022-08-18T07:35:16;19.10;99.90
56234;DHT22;42141;53.240;6.580;2022-08-18T07:43:01;19.30;99.90
56234;DHT22;42141;53.240;6.580;2022-08-18T07:45:42;19.30;99.90
56234;DHT22;42141;53.240;6.580;2022-08-18T07:48:24;19.30;99.90
56234;DHT22;42141;53.240;6.580;2022-08-18T07:56:49;19.50;99.90
56234;DHT22;42141;53.240;6.580;2022-08-18T08:05:19;19.80;99.90
56234;DHT22;42141;53.240;6.580;2022-08-18T08:21:32;19.90;99.90
56234;DHT22;42141;53.240;6.580;2022-08-18T08:24:25;20.00;99.90
56234;DHT22;42141;53.240;6.580;2022-08-18T08:27:23;20.00;99.90
56234;DHT22;42141;53.240;6.580;2022-08-18T08:30:07;20.00;99.90
56234;DHT22;42141;53.240;6.580;2022-08-18T08:32:56;20.00;99.90
56234;DHT22;42141;53.240;6.580;2022-08-18T08:35:46;19.90;99.90
56234;DHT22;42141;53.240;6.580;2022-08-18T08:41:09;20.00;99.90
56234;DHT22;42141;53.240;6.580;2022-08-18T08:43:52;20.00;99.90
56234;DHT22;42141;53.240;6.580;2022-08-18T08:46:23;20.00;99.90
56234;DHT22;42141;53.240;6.580;2022-08-18T08:48:55;20.00;99.90
56234;DHT22;42141;53.240;6.580;2022-08-18T08:51:42;20.10;99.90
56234;DHT22;42141;53.240;6.580;2022-08-18T08:56:45;20.00;99.90
56234;DHT22;42141;53.240;6.580;2022-08-18T08:59:15;19.90;99.90
56234;DHT22;42141;53.240;6.580;2022-08-18T09:07:21;20.00;99.90
56234;DHT22;42141;53.240;6.580;2022-08-18T09:23:53;20.20;99.90
56234;DHT22;42141;53.240;6.580;2022-08-18T09:26:37;20.20;99.90
56234;DHT22;42141;53.240;6.580;2022-08-18T09:29:45;20.20;99.90
56234;DHT22;42141;53.240;6.580;2022-08-18T09:40:45;20.50;99.90
56234;DHT22;42141;53.240;6.580;2022-08-18T09:43:55;20.60;99.90
56234;DHT22;42141;53.240;6.580;2022-08-18T09:51:57;21.10;99.90
56234;DHT22;42141;53.240;6.580;2022-08-18T09:54:32;21.20;99.90
56234;DHT22;42141;53.240;6.580;2022-08-18T10:16:20;21.80;99.90
56234;DHT22;42141;53.240;6.580;2022-08-18T10:21:28;21.60;99.90
56234;DHT22;42141;53.240;6.580;2022-08-18T10:37:24;21.40;99.90
56234;DHT22;42141;53.240;6.580;2022-08-18T10:40:21;21.40;99.90
56234;DHT22;42141;53.240;6.580;2022-08-18T10:43:09;21.40;99.90
56234;DHT22;42141;53.240;6.580;2022-08-18T10:45:48;21.30;99.90
56234;DHT22;42141;53.240;6.580;2022-08-18T10:48:25;21.30;99.90
56234;DHT22;42141;53.240;6.580;2022-08-18T10:56:42;21.20;99.90
56234;DHT22;42141;53.240;6.580;2022-08-18T11:05:24;21.00;99.90
56234;DHT22;42141;53.240;6.580;2022-08-18T11:07:57;20.90;99.90
56234;DHT22;42141;53.240;6.580;2022-08-18T11:10:37;20.90;99.90
56234;DHT22;42141;53.240;6.580;2022-08-18T11:19:07;21.00;99.90
56234;DHT22;42141;53.240;6.580;2022-08-18T11:21:39;20.90;99.90
56234;DHT22;42141;53.240;6.580;2022-08-18T11:24:12;21.00;99.90
56234;DHT22;42141;53.240;6.580;2022-08-18T11:26:48;21.00;99.90
56234;DHT22;42141;53.240;6.580;2022-08-18T11:29:39;21.00;99.90
56234;DHT22;42141;53.240;6.580;2022-08-18T11:32:27;21.20;99.90
56234;DHT22;42141;53.240;6.580;2022-08-18T11:37:44;21.60;99.90
56234;DHT22;42141;53.240;6.580;2022-08-18T11:40:25;21.70;99.90
56234;DHT22;42141;53.240;6.580;2022-08-18T11:42:59;22.00;99.90
56234;DHT22;42141;53.240;6.580;2022-08-18T11:45:33;22.30;99.90
56234;DHT22;42141;53.240;6.580;2022-08-18T11:50:29;22.60;99.90
56234;DHT22;42141;53.240;6.580;2022-08-18T11:52:56;23.00;99.90
56234;DHT22;42141;53.240;6.580;2022-08-18T11:55:30;23.00;99.90
56234;DHT22;42141;53.240;6.580;2022-08-18T11:57:58;23.10;99.90
56234;DHT22;42141;53.240;6.580;2022-08-18T12:03:49;23.10;99.90
56234;DHT22;42141;53.240;6.580;2022-08-18T12:05:52;22.90;99.90
56234;DHT22;42141;53.240;6.580;2022-08-18T12:08:22;22.70;99.90
56234;DHT22;42141;53.240;6.580;2022-08-18T12:11:05;22.50;99.90
56234;DHT22;42141;53.240;6.580;2022-08-18T12:13:32;22.40;99.90
56234;DHT22;42141;53.240;6.580;2022-08-18T12:16:10;22.40;99.90
56234;DHT22;42141;53.240;6.580;2022-08-18T12:18:36;22.50;99.90
56234;DHT22;42141;53.240;6.580;2022-08-18T12:21:02;22.50;99.90
56234;DHT22;42141;53.240;6.580;2022-08-18T12:23:27;22.50;99.90
56234;DHT22;42141;53.240;6.580;2022-08-18T12:25:53;22.30;99.90
56234;DHT22;42141;53.240;6.580;2022-08-18T12:28:19;22.20;99.90
56234;DHT22;42141;53.240;6.580;2022-08-18T12:30:45;22.10;99.90
56234;DHT22;42141;53.240;6.580;2022-08-18T12:33:11;22.10;99.90
56234;DHT22;42141;53.240;6.580;2022-08-18T12:35:37;22.10;99.90
56234;DHT22;42141;53.240;6.580;2022-08-18T12:38:03;22.20;99.90
56234;DHT22;42141;53.240;6.580;2022-08-18T12:40:29;22.30;99.90
56234;DHT22;42141;53.240;6.580;2022-08-18T12:42:55;22.40;99.90
56234;DHT22;42141;53.240;6.580;2022-08-18T12:45:21;22.50;99.90
56234;DHT22;42141;53.240;6.580;2022-08-18T12:47:47;22.60;99.90
56234;DHT22;42141;53.240;6.580;2022-08-18T12:50:13;22.50;99.90
56234;DHT22;42141;53.240;6.580;2022-08-18T12:52:38;22.60;99.90
56234;DHT22;42141;53.240;6.580;2022-08-18T12:55:04;22.70;99.90
56234;DHT22;42141;53.240;6.580;2022-08-18T12:57:34;22.90;99.90
56234;DHT22;42141;53.240;6.580;2022-08-18T13:00:00;23.10;99.90
56234;DHT22;42141;53.240;6.580;2022-08-18T13:02:25;23.40;99.90
56234;DHT22;42141;53.240;6.580;2022-08-18T13:04:51;23.60;99.90
56234;DHT22;42141;53.240;6.580;2022-08-18T13:07:17;23.70;99.90
56234;DHT22;42141;53.240;6.580;2022-08-18T13:09:43;23.80;99.90
56234;DHT22;42141;53.240;6.580;2022-08-18T13:12:10;23.70;99.90
56234;DHT22;42141;53.240;6.580;2022-08-18T13:14:36;23.70;99.90
56234;DHT22;42141;53.240;6.580;2022-08-18T13:17:03;23.70;99.90
56234;DHT22;42141;53.240;6.580;2022-08-18T13:19:29;23.70;99.90
56234;DHT22;42141;53.240;6.580;2022-08-18T13:21:54;23.70;99.90
56234;DHT22;42141;53.240;6.580;2022-08-18T13:24:20;23.90;99.90
56234;DHT22;42141;53.240;6.580;2022-08-18T13:26:46;24.10;99.90
56234;DHT22;42141;53.240;6.580;2022-08-18T13:29:16;24.30;99.90
56234;DHT22;42141;53.240;6.580;2022-08-18T13:31:54;24.50;99.90
56234;DHT22;42141;53.240;6.580;2022-08-18T13:34:25;24.80;99.90
56234;DHT22;42141;53.240;6.580;2022-08-18T13:36:53;24.80;99.90
56234;DHT22;42141;53.240;6.580;2022-08-18T13:39:21;25.20;99.90
56234;DHT22;42141;53.240;6.580;2022-08-18T13:41:56;25.00;99.90
56234;DHT22;42141;53.240;6.580;2022-08-18T13:44:22;25.10;99.90
56234;DHT22;42141;53.240;6.580;2022-08-18T13:46:48;25.10;99.90
56234;DHT22;42141;53.240;6.580;2022-08-18T13:49:16;25.00;99.90
56234;DHT22;42141;53.240;6.580;2022-08-18T13:51:43;25.00;99.90
56234;DHT22;42141;53.240;6.580;2022-08-18T13:54:23;24.70;99.90
56234;DHT22;42141;53.240;6.580;2022-08-18T13:56:49;24.70;99.90
56234;DHT22;42141;53.240;6.580;2022-08-18T13:59:16;24.70;99.90
56234;DHT22;42141;53.240;6.580;2022-08-18T14:01:43;24.80;99.90
56234;DHT22;42141;53.240;6.580;2022-08-18T14:04:11;24.70;99.90
56234;DHT22;42141;53.240;6.580;2022-08-18T14:06:38;24.40;99.90
56234;DHT22;42141;53.240;6.580;2022-08-18T14:09:04;24.30;99.90
56234;DHT22;42141;53.240;6.580;2022-08-18T14:11:31;24.50;99.90
56234;DHT22;42141;53.240;6.580;2022-08-18T14:13:59;24.70;99.90
56234;DHT22;42141;53.240;6.580;2022-08-18T14:16:29;25.00;99.90
56234;DHT22;42141;53.240;6.580;2022-08-18T14:18:59;25.20;99.90
56234;DHT22;42141;53.240;6.580;2022-08-18T14:21:45;25.10;99.90
56234;DHT22;42141;53.240;6.580;2022-08-18T14:24:31;25.40;99.90
56234;DHT22;42141;53.240;6.580;2022-08-18T14:27:17;25.20;99.90
56234;DHT22;42141;53.240;6.580;2022-08-18T14:29:43;25.00;99.90
56234;DHT22;42141;53.240;6.580;2022-08-18T14:32:11;25.10;99.90
56234;DHT22;42141;53.240;6.580;2022-08-18T14:34:37;25.20;99.90
56234;DHT22;42141;53.240;6.580;2022-08-18T14:37:02;25.30;99.90
56234;DHT22;42141;53.240;6.580;2022-08-18T14:39:28;25.30;99.90
56234;DHT22;42141;53.240;6.580;2022-08-18T14:41:55;25.30;99.90
56234;DHT22;42141;53.240;6.580;2022-08-18T14:44:23;25.20;99.90
56234;DHT22;42141;53.240;6.580;2022-08-18T14:46:49;25.30;99.90
56234;DHT22;42141;53.240;6.580;2022-08-18T14:49:14;25.80;99.90
56234;DHT22;42141;53.240;6.580;2022-08-18T14:51:41;25.20;99.90
56234;DHT22;42141;53.240;6.580;2022-08-18T14:54:10;25.10;99.90
56234;DHT22;42141;53.240;6.580;2022-08-18T14:56:37;25.10;99.90
56234;DHT22;42141;53.240;6.580;2022-08-18T14:59:03;25.00;99.90
56234;DHT22;42141;53.240;6.580;2022-08-18T15:01:35;24.90;99.90
56234;DHT22;42141;53.240;6.580;2022-08-18T15:04:02;24.80;99.90
56234;DHT22;42141;53.240;6.580;2022-08-18T15:06:28;24.80;99.90
56234;DHT22;42141;53.240;6.580;2022-08-18T15:08:54;24.80;99.90
56234;DHT22;42141;53.240;6.580;2022-08-18T15:11:20;24.80;99.90
56234;DHT22;42141;53.240;6.580;2022-08-18T15:13:46;24.80;99.90
56234;DHT22;42141;53.240;6.580;2022-08-18T15:16:13;24.70;99.90
56234;DHT22;42141;53.240;6.580;2022-08-18T15:18:41;24.60;99.90
56234;DHT22;42141;53.240;6.580;2022-08-18T15:21:07;24.40;99.90
56234;DHT22;42141;53.240;6.580;2022-08-18T15:23:51;24.30;99.90
56234;DHT22;42141;53.240;6.580;2022-08-18T15:26:35;24.10;99.90
56234;DHT22;42141;53.240;6.580;2022-08-18T15:29:06;24.20;99.90
56234;DHT22;42141;53.240;6.580;2022-08-18T15:31:33;24.30;99.90
56234;DHT22;42141;53.240;6.580;2022-08-18T15:33:59;24.60;99.90
56234;DHT22;42141;53.240;6.580;2022-08-18T15:36:24;24.70;99.90
56234;DHT22;42141;53.240;6.580;2022-08-18T15:38:50;24.80;99.90
56234;DHT22;42141;53.240;6.580;2022-08-18T15:41:37;24.70;99.90
56234;DHT22;42141;53.240;6.580;2022-08-18T15:44:05;24.70;99.90
56234;DHT22;42141;53.240;6.580;2022-08-18T15:46:34;24.60;99.90
56234;DHT22;42141;53.240;6.580;2022-08-18T15:49:01;24.50;99.90
56234;DHT22;42141;53.240;6.580;2022-08-18T15:51:30;24.40;99.90
56234;DHT22;42141;53.240;6.580;2022-08-18T15:53:56;24.70;99.90
56234;DHT22;42141;53.240;6.580;2022-08-18T15:56:25;24.10;99.90
56234;DHT22;42141;53.240;6.580;2022-08-18T15:58:54;23.90;99.90
56234;DHT22;42141;53.240;6.580;2022-08-18T16:01:21;23.60;99.90
56234;DHT22;42141;53.240;6.580;2022-08-18T16:03:48;23.50;99.90
56234;DHT22;42141;53.240;6.580;2022-08-18T16:06:21;23.30;99.90
56234;DHT22;42141;53.240;6.580;2022-08-18T16:08:49;23.10;99.90
56234;DHT22;42141;53.240;6.580;2022-08-18T16:11:15;23.00;99.90
56234;DHT22;42141;53.240;6.580;2022-08-18T16:13:42;22.80;99.90
56234;DHT22;42141;53.240;6.580;2022-08-18T16:16:10;22.70;99.90
56234;DHT22;42141;53.240;6.580;2022-08-18T16:18:36;22.60;99.90
56234;DHT22;42141;53.240;6.580;2022-08-18T16:21:08;22.50;99.90
56234;DHT22;42141;53.240;6.580;2022-08-18T16:23:40;22.40;99.90
56234;DHT22;42141;53.240;6.580;2022-08-18T16:26:07;22.30;99.90
56234;DHT22;42141;53.240;6.580;2022-08-18T16:28:34;22.20;99.90
56234;DHT22;42141;53.240;6.580;2022-08-18T16:31:00;22.10;99.90
56234;DHT22;42141;53.240;6.580;2022-08-18T16:33:26;22.00;99.90
56234;DHT22;42141;53.240;6.580;2022-08-18T16:35:52;21.90;99.90
56234;DHT22;42141;53.240;6.580;2022-08-18T16:38:18;21.80;99.90
56234;DHT22;42141;53.240;6.580;2022-08-18T16:40:45;21.70;99.90
56234;DHT22;42141;53.240;6.580;2022-08-18T16:43:11;21.70;99.90
56234;DHT22;42141;53.240;6.580;2022-08-18T16:45:40;21.60;99.90
56234;DHT22;42141;53.240;6.580;2022-08-18T16:48:07;21.50;99.90
56234;DHT22;42141;53.240;6.580;2022-08-18T16:50:34;21.50;99.90
56234;DHT22;42141;53.240;6.580;2022-08-18T16:53:00;21.40;99.90
56234;DHT22;42141;53.240;6.580;2022-08-18T16:55:26;21.40;99.90
56234;DHT22;42141;53.240;6.580;2022-08-18T16:57:52;21.30;99.90
56234;DHT22;42141;53.240;6.580;2022-08-18T17:00:36;21.20;99.90
56234;DHT22;42141;53.240;6.580;2022-08-18T17:03:21;21.20;99.90
56234;DHT22;42141;53.240;6.580;2022-08-18T17:06:11;21.10;99.90
56234;DHT22;42141;53.240;6.580;2022-08-18T17:08:38;21.10;99.90
56234;DHT22;42141;53.240;6.580;2022-08-18T17:11:07;21.00;99.90
56234;DHT22;42141;53.240;6.580;2022-08-18T17:13:37;20.90;99.90
56234;DHT22;42141;53.240;6.580;2022-08-18T17:16:05;20.80;99.90
56234;DHT22;42141;53.240;6.580;2022-08-18T17:18:32;20.80;99.90
56234;DHT22;42141;53.240;6.580;2022-08-18T17:21:06;20.80;99.90
56234;DHT22;42141;53.240;6.580;2022-08-18T17:23:32;20.70;99.90
56234;DHT22;42141;53.240;6.580;2022-08-18T17:25:59;20.70;99.90
56234;DHT22;42141;53.240;6.580;2022-08-18T17:28:37;20.60;99.90
56234;DHT22;42141;53.240;6.580;2022-08-18T17:31:04;20.60;99.90
56234;DHT22;42141;53.240;6.580;2022-08-18T17:33:33;20.50;99.90
56234;DHT22;42141;53.240;6.580;2022-08-18T17:36:04;20.50;99.90
56234;DHT22;42141;53.240;6.580;2022-08-18T17:38:53;20.50;99.90
56234;DHT22;42141;53.240;6.580;2022-08-18T17:41:21;20.40;99.90
56234;DHT22;42141;53.240;6.580;2022-08-18T17:43:50;20.30;99.90
56234;DHT22;42141;53.240;6.580;2022-08-18T17:46:30;20.30;99.90
56234;DHT22;42141;53.240;6.580;2022-08-18T17:50:03;20.20;99.90
56234;DHT22;42141;53.240;6.580;2022-08-18T17:52:15;20.10;99.90
56234;DHT22;42141;53.240;6.580;2022-08-18T17:54:47;20.10;99.90
56234;DHT22;42141;53.240;6.580;2022-08-18T17:57:41;20.00;99.90
56234;DHT22;42141;53.240;6.580;2022-08-18T18:00:15;20.00;99.90
56234;DHT22;42141;53.240;6.580;2022-08-18T18:02:43;19.90;99.90
56234;DHT22;42141;53.240;6.580;2022-08-18T18:05:13;19.90;99.90
56234;DHT22;42141;53.240;6.580;2022-08-18T18:16:00;19.70;99.90
56234;DHT22;42141;53.240;6.580;2022-08-18T18:23:41;19.50;99.90
56234;DHT22;42141;53.240;6.580;2022-08-18T18:26:24;19.40;99.90
56234;DHT22;42141;53.240;6.580;2022-08-18T18:28:58;19.40;99.90
56234;DHT22;42141;53.240;6.580;2022-08-18T18:31:34;19.30;99.90
56234;DHT22;42141;53.240;6.580;2022-08-18T18:34:03;19.30;99.90
56234;DHT22;42141;53.240;6.580;2022-08-18T18:36:43;19.20;99.90
56234;DHT22;42141;53.240;6.580;2022-08-18T18:39:15;19.20;99.90
56234;DHT22;42141;53.240;6.580;2022-08-18T18:41:42;19.10;99.90
56234;DHT22;42141;53.240;6.580;2022-08-18T18:44:11;19.00;99.90
56234;DHT22;42141;53.240;6.580;2022-08-18T18:57:46;18.80;99.90
56234;DHT22;42141;53.240;6.580;2022-08-18T19:00:23;18.20;99.90
56234;DHT22;42141;53.240;6.580;2022-08-18T19:05:37;18.60;99.90
56234;DHT22;42141;53.240;6.580;2022-08-18T19:08:28;18.60;99.90
56234;DHT22;42141;53.240;6.580;2022-08-18T19:11:09;18.50;99.90